Time;durP1;ratioP1;P1;durP2;ratioP2;P2;SDS_P1;SDS_P2;PMS_P1;PMS_P2;Temp;Humidity;BMP_temperature;BMP_pressure;BME280_temperature;BME280_humidity;BME280_pressure;Samples;Min_cycle;Max_cycle;Signal;HPM_P1;HPM_P2
2021/10/02 00:36:09;;;;;;;6.07;1.80;;;7.50;94.50;;;;;;5057273;28;20045;-67
2021/10/02 00:41:49;;;;;;;4.60;2.00;;;7.40;94.80;;;;;;5072461;28;20043;-67
2021/10/02 00:47:02;;;;;;;4.85;1.80;;;7.40;94.50;;;;;;5065240;28;20513;-67
2021/10/02 00:49:29;;;;;;;9.13;3.10;;;7.40;94.90;;;;;;5053403;28;20154;-67
2021/10/02 00:51:56;;;;;;;11.07;2.22;;;7.40;95.00;;;;;;5066256;28;20048;-67
2021/10/02 00:54:23;;;;;;;7.72;1.95;;;7.40;95.10;;;;;;5059100;28;20071;-67
2021/10/02 00:56:50;;;;;;;7.55;2.08;;;7.40;95.40;;;;;;5058803;28;20389;-67
2021/10/02 00:59:17;;;;;;;6.85;1.98;;;7.30;94.80;;;;;;5074800;28;20060;-67
2021/10/02 01:01:54;;;;;;;8.52;3.17;;;7.40;94.60;;;;;;5040021;28;20120;-67
2021/10/02 01:04:59;;;;;;;6.78;1.98;;;7.30;94.80;;;;;;5073706;28;20197;-67
2021/10/02 01:07:35;;;;;;;6.95;2.10;;;7.30;95.00;;;;;;5063375;28;20446;-67
2021/10/02 01:10:14;;;;;;;6.72;2.20;;;7.30;95.20;;;;;;5092849;28;20044;-67
2021/10/02 01:12:57;;;;;;;9.02;2.10;;;7.20;95.10;;;;;;5091023;28;20052;-67
2021/10/02 01:15:44;;;;;;;10.63;3.10;;;7.20;95.30;;;;;;5073347;28;20151;-66
2021/10/02 01:18:16;;;;;;;8.45;2.40;;;7.20;95.00;;;;;;5071715;28;20095;-66
2021/10/02 01:21:08;;;;;;;5.43;1.85;;;7.20;95.10;;;;;;5066815;28;20431;-66
2021/10/02 01:23:50;;;;;;;5.32;1.70;;;7.20;95.00;;;;;;5086319;28;20058;-67
2021/10/02 01:26:46;;;;;;;4.65;2.13;;;7.20;95.30;;;;;;5090580;28;20075;-66
2021/10/02 01:29:13;;;;;;;9.70;3.78;;;7.20;95.10;;;;;;5059496;28;20107;-67
2021/10/02 01:31:47;;;;;;;6.03;2.08;;;7.20;95.20;;;;;;5047124;28;20079;-66
2021/10/02 01:48:01;;;;;;;9.93;2.40;;;7.30;95.60;;;;;;5062829;28;20044;-66
2021/10/02 01:50:30;;;;;;;7.82;1.95;;;7.30;95.50;;;;;;5058592;28;20048;-66
2021/10/02 01:52:58;;;;;;;7.32;2.15;;;7.30;95.60;;;;;;5061728;28;20492;-65
2021/10/02 01:55:25;;;;;;;4.60;2.10;;;7.30;95.50;;;;;;5050186;28;20131;-66
2021/10/02 01:57:56;;;;;;;5.25;2.05;;;7.30;95.80;;;;;;5056174;28;20448;-66
2021/10/02 02:00:23;;;;;;;10.30;3.40;;;7.40;95.70;;;;;;5066868;28;20120;-65
2021/10/02 02:02:51;;;;;;;9.95;2.05;;;7.40;95.60;;;;;;5038557;28;20048;-66
2021/10/02 02:05:20;;;;;;;8.25;2.45;;;7.40;95.50;;;;;;5059418;28;20058;-66
2021/10/02 02:07:51;;;;;;;4.93;2.00;;;7.40;95.80;;;;;;5070848;28;20066;-65
2021/10/02 02:10:20;;;;;;;6.80;1.88;;;7.50;95.90;;;;;;5069435;28;20127;-66
2021/10/02 02:12:51;;;;;;;8.02;2.47;;;7.50;95.90;;;;;;5047956;28;20131;-66
2021/10/02 02:15:18;;;;;;;5.30;2.33;;;7.50;95.80;;;;;;5055429;28;20040;-66
2021/10/02 02:17:51;;;;;;;8.05;1.80;;;7.50;96.00;;;;;;5063832;28;20052;-66
2021/10/02 02:20:25;;;;;;;10.40;2.67;;;7.60;95.90;;;;;;5051324;28;20143;-67
2021/10/02 02:22:52;;;;;;;5.80;2.38;;;7.60;95.80;;;;;;5063940;28;20080;-66
2021/10/02 02:25:19;;;;;;;5.03;2.10;;;7.70;95.70;;;;;;5052396;28;20052;-66
2021/10/02 02:27:46;;;;;;;6.68;2.20;;;7.70;95.90;;;;;;5052746;28;20143;-65
2021/10/02 02:30:13;;;;;;;7.10;2.22;;;7.70;95.90;;;;;;5066152;28;20083;-66
2021/10/02 02:32:40;;;;;;;4.85;2.35;;;7.70;95.50;;;;;;5068061;28;20041;-67
2021/10/02 02:35:08;;;;;;;11.35;2.35;;;7.70;95.40;;;;;;5069045;28;20334;-66
2021/10/02 02:37:35;;;;;;;9.80;2.55;;;7.80;95.60;;;;;;5068742;28;20119;-66
2021/10/02 02:40:02;;;;;;;7.18;1.85;;;7.70;95.60;;;;;;5070183;28;20044;-67
2021/10/02 02:42:29;;;;;;;4.05;1.88;;;7.70;95.60;;;;;;5068723;28;20059;-66
2021/10/02 02:44:56;;;;;;;7.03;2.63;;;7.70;95.90;;;;;;5068503;28;20101;-67
2021/10/02 02:47:24;;;;;;;7.97;2.33;;;7.70;95.70;;;;;;5029906;28;20045;-66
2021/10/02 02:49:59;;;;;;;7.60;2.35;;;7.70;95.60;;;;;;5012782;28;20063;-67
2021/10/02 02:53:02;;;;;;;6.53;2.40;;;7.70;95.60;;;;;;5034632;28;20385;-66
2021/10/02 02:55:32;;;;;;;7.82;2.10;;;7.60;95.90;;;;;;5043705;28;20084;-66
2021/10/02 02:58:03;;;;;;;6.65;2.20;;;7.60;95.70;;;;;;5058710;28;20143;-66
2021/10/02 03:00:31;;;;;;;6.40;2.33;;;7.70;95.70;;;;;;5068971;28;20496;-66
2021/10/02 03:03:05;;;;;;;8.98;3.10;;;7.70;95.40;;;;;;5085233;28;20051;-67
2021/10/02 03:05:33;;;;;;;11.68;2.67;;;7.70;95.60;;;;;;5032988;28;20065;-66
2021/10/02 03:08:03;;;;;;;11.15;2.78;;;7.70;95.40;;;;;;5056033;28;20904;-67
2021/10/02 03:10:30;;;;;;;7.65;1.92;;;7.80;95.40;;;;;;5069518;28;20067;-66
2021/10/02 03:13:01;;;;;;;8.13;2.10;;;7.80;95.60;;;;;;5057373;28;20083;-66
2021/10/02 03:15:28;;;;;;;9.88;2.22;;;7.80;95.60;;;;;;5049358;28;20046;-66
2021/10/02 03:17:54;;;;;;;6.70;2.17;;;7.80;95.20;;;;;;5089737;28;20138;-65
2021/10/02 03:20:21;;;;;;;5.18;1.52;;;7.80;95.10;;;;;;5038702;28;20840;-66
2021/10/02 03:22:49;;;;;;;5.70;2.13;;;7.80;95.60;;;;;;5032150;28;20126;-66
2021/10/02 03:25:16;;;;;;;11.80;2.42;;;7.80;95.20;;;;;;5070952;28;20052;-66
2021/10/02 03:27:43;;;;;;;16.45;2.83;;;7.80;95.10;;;;;;5029203;28;20059;-66
2021/10/02 03:30:10;;;;;;;6.55;2.78;;;7.80;95.00;;;;;;5072885;28;20048;-66
2021/10/02 03:32:37;;;;;;;12.02;4.30;;;7.80;95.60;;;;;;5089034;28;20368;-65
2021/10/02 03:35:04;;;;;;;9.60;2.75;;;7.80;95.30;;;;;;5071320;28;20070;-65
2021/10/02 03:37:31;;;;;;;9.13;2.50;;;7.80;95.40;;;;;;5043594;28;20445;-65
2021/10/02 03:39:58;;;;;;;6.55;2.85;;;7.80;95.50;;;;;;5059744;28;20088;-65
2021/10/02 03:42:25;;;;;;;11.52;4.78;;;7.80;95.60;;;;;;5077180;28;20139;-66
2021/10/02 03:44:52;;;;;;;8.43;3.25;;;7.80;95.30;;;;;;5096219;28;20076;-65
2021/10/02 03:47:20;;;;;;;11.93;4.72;;;7.80;95.30;;;;;;5077422;28;20451;-66
2021/10/02 03:49:47;;;;;;;9.13;3.58;;;7.80;95.30;;;;;;5050360;28;20467;-66
2021/10/02 03:52:14;;;;;;;13.48;4.80;;;7.70;95.60;;;;;;5089663;28;20135;-67
2021/10/02 03:54:41;;;;;;;11.75;4.90;;;7.80;95.70;;;;;;5079637;28;20070;-66
2021/10/02 03:57:08;;;;;;;10.93;4.43;;;7.70;95.40;;;;;;5066310;28;20040;-67
2021/10/02 03:59:35;;;;;;;11.60;4.65;;;7.70;95.60;;;;;;5085083;28;20484;-67
2021/10/02 04:02:02;;;;;;;11.32;5.35;;;7.70;95.70;;;;;;5095312;28;20096;-62
2021/10/02 04:04:29;;;;;;;16.00;8.07;;;7.80;96.10;;;;;;5044447;28;20123;-66
2021/10/02 04:06:56;;;;;;;14.15;6.05;;;7.80;96.10;;;;;;5077154;28;20051;-67
2021/10/02 04:09:24;;;;;;;13.23;7.35;;;7.70;95.90;;;;;;5074710;28;20528;-66
2021/10/02 04:11:51;;;;;;;26.50;13.68;;;7.80;95.90;;;;;;5074125;28;20129;-67
2021/10/02 04:14:18;;;;;;;19.02;8.95;;;7.70;95.90;;;;;;5096479;28;20051;-66
2021/10/02 04:16:45;;;;;;;16.67;6.85;;;7.70;95.70;;;;;;5078553;28;20048;-66
2021/10/02 04:19:12;;;;;;;19.27;6.82;;;7.70;95.60;;;;;;5086226;28;20051;-66
2021/10/02 04:21:39;;;;;;;13.98;6.40;;;7.70;95.80;;;;;;5076363;28;20056;-65
2021/10/02 04:24:06;;;;;;;14.95;6.43;;;7.70;95.80;;;;;;5071730;28;20051;-66
2021/10/02 04:26:33;;;;;;;10.02;4.60;;;7.70;95.80;;;;;;5077545;28;20452;-66
2021/10/02 04:29:00;;;;;;;14.75;5.15;;;7.80;95.80;;;;;;5084682;28;20052;-66
2021/10/02 04:31:27;;;;;;;11.50;4.47;;;7.80;96.00;;;;;;5092227;28;20091;-65
2021/10/02 04:33:54;;;;;;;18.25;4.45;;;7.70;96.10;;;;;;5075610;28;20040;-65
2021/10/02 04:36:23;;;;;;;9.77;3.35;;;7.80;96.10;;;;;;5077078;28;20851;-66
2021/10/02 04:38:49;;;;;;;10.27;3.83;;;7.80;95.70;;;;;;5096975;28;20066;-65
2021/10/02 04:41:16;;;;;;;15.05;4.30;;;7.80;96.00;;;;;;5058846;28;20558;-66
2021/10/02 04:43:44;;;;;;;10.02;3.97;;;7.80;96.10;;;;;;5062230;28;20135;-66
2021/10/02 04:46:12;;;;;;;13.15;3.65;;;7.80;95.90;;;;;;5075281;28;20504;-66
2021/10/02 04:48:39;;;;;;;7.50;3.38;;;7.80;95.80;;;;;;5057058;28;20143;-67
2021/10/02 04:51:07;;;;;;;8.57;3.40;;;7.80;96.00;;;;;;5058756;28;20052;-66
2021/10/02 04:53:35;;;;;;;10.45;3.50;;;7.80;96.00;;;;;;5036375;28;20089;-66
2021/10/02 04:56:06;;;;;;;11.10;3.45;;;7.80;96.00;;;;;;5053617;28;20044;-66
2021/10/02 04:58:34;;;;;;;9.32;3.70;;;7.90;95.80;;;;;;5062370;28;20087;-65
2021/10/02 05:01:11;;;;;;;9.55;3.30;;;7.80;96.00;;;;;;5058702;28;20519;-66
2021/10/02 05:03:38;;;;;;;10.18;3.33;;;7.80;96.00;;;;;;5070202;28;20107;-66
2021/10/02 05:06:06;;;;;;;8.98;3.67;;;7.90;96.00;;;;;;5058734;28;20054;-66
2021/10/02 05:08:33;;;;;;;7.75;2.63;;;7.90;95.80;;;;;;5058813;28;20052;-66
2021/10/02 05:11:00;;;;;;;6.50;2.15;;;7.90;95.70;;;;;;5074770;28;20404;-66
2021/10/02 05:13:28;;;;;;;8.50;2.30;;;7.90;95.40;;;;;;5071284;28;20050;-66
2021/10/02 05:15:55;;;;;;;12.77;2.85;;;7.90;95.20;;;;;;5058268;28;20135;-66
2021/10/02 05:18:22;;;;;;;11.63;2.90;;;7.90;94.70;;;;;;5087259;28;20132;-66
2021/10/02 05:20:49;;;;;;;6.20;2.33;;;7.90;94.50;;;;;;5072840;28;20055;-66
2021/10/02 05:23:18;;;;;;;8.65;2.35;;;8.00;94.10;;;;;;5081922;28;20040;-66
2021/10/02 05:25:45;;;;;;;10.00;2.58;;;8.00;93.70;;;;;;5058602;28;20134;-66
2021/10/02 05:28:12;;;;;;;14.68;2.83;;;8.10;93.60;;;;;;5049926;28;20060;-66
2021/10/02 05:30:38;;;;;;;8.48;2.05;;;8.10;93.40;;;;;;5092157;28;20106;-67
2021/10/02 05:33:05;;;;;;;12.65;2.15;;;8.20;93.20;;;;;;5091920;28;20533;-66
2021/10/02 05:35:33;;;;;;;7.30;2.63;;;8.30;93.20;;;;;;5046800;28;20062;-66
2021/10/02 05:38:00;;;;;;;8.63;1.63;;;8.30;93.10;;;;;;5071808;28;20127;-67
2021/10/02 05:40:27;;;;;;;9.57;1.92;;;8.30;93.20;;;;;;5074677;28;20052;-66
2021/10/02 05:42:54;;;;;;;5.82;1.88;;;8.20;93.20;;;;;;5072656;28;20338;-66
2021/10/02 05:45:21;;;;;;;7.82;2.58;;;8.20;93.50;;;;;;5064046;28;20529;-67
2021/10/02 05:47:48;;;;;;;5.65;2.13;;;8.20;93.60;;;;;;5055532;28;20411;-66
2021/10/02 05:50:15;;;;;;;11.88;2.33;;;8.20;93.80;;;;;;5055441;28;20083;-66
2021/10/02 05:52:42;;;;;;;5.95;2.33;;;8.20;93.60;;;;;;5054110;28;20052;-66
2021/10/02 05:55:10;;;;;;;7.85;2.63;;;8.30;93.80;;;;;;5083476;28;20484;-66
2021/10/02 05:57:37;;;;;;;10.75;2.13;;;8.30;93.80;;;;;;5071931;28;20047;-66
2021/10/02 06:00:07;;;;;;;10.95;1.83;;;8.40;93.60;;;;;;5061451;28;20052;-67
2021/10/02 06:02:34;;;;;;;;;;;8.50;93.50;;;;;;5053734;28;20166;-66
2021/10/02 06:05:01;;;;;;;8.55;2.13;;;8.60;93.80;;;;;;5045424;28;19994;-66
2021/10/02 06:07:29;;;;;;;9.43;2.40;;;8.70;93.50;;;;;;5060922;28;20081;-66
2021/10/02 06:09:56;;;;;;;9.52;2.40;;;8.80;93.30;;;;;;5037893;28;20048;-66
2021/10/02 06:12:23;;;;;;;8.73;2.47;;;8.90;93.00;;;;;;5076785;28;20040;-66
2021/10/02 06:14:50;;;;;;;12.73;2.60;;;9.00;93.40;;;;;;5047626;28;20044;-66
2021/10/02 06:17:17;;;;;;;9.90;2.10;;;9.00;93.30;;;;;;5090953;28;20058;-66
2021/10/02 06:19:43;;;;;;;7.32;2.53;;;9.10;93.00;;;;;;5088411;28;20502;-66
2021/10/02 06:22:10;;;;;;;6.70;2.20;;;9.20;93.10;;;;;;5090020;28;20400;-66
2021/10/02 06:24:37;;;;;;;7.22;2.30;;;9.30;93.00;;;;;;5069069;28;20055;-66
2021/10/02 06:27:04;;;;;;;11.30;1.88;;;9.40;93.40;;;;;;5091256;28;20130;-66
2021/10/02 06:29:31;;;;;;;6.78;1.73;;;9.40;93.50;;;;;;5090285;28;20069;-66
2021/10/02 06:31:58;;;;;;;10.20;2.63;;;9.50;93.80;;;;;;5091455;28;20044;-68
2021/10/02 06:34:25;;;;;;;8.98;2.00;;;9.60;94.30;;;;;;5072362;28;20048;-66
2021/10/02 06:36:52;;;;;;;11.55;3.22;;;9.60;94.20;;;;;;5090715;28;20139;-66
2021/10/02 06:39:19;;;;;;;10.02;3.05;;;9.70;94.30;;;;;;5088424;28;20547;-67
2021/10/02 06:41:46;;;;;;;5.72;2.25;;;9.70;94.30;;;;;;5083536;28;20118;-66
2021/10/02 06:44:13;;;;;;;16.63;2.58;;;9.80;94.40;;;;;;5070809;28;20381;-66
2021/10/02 06:46:40;;;;;;;10.93;2.58;;;9.80;94.20;;;;;;5070471;28;20087;-67
2021/10/02 06:49:07;;;;;;;5.05;2.20;;;9.80;94.60;;;;;;5071292;28;20132;-66
2021/10/02 06:51:34;;;;;;;11.40;2.25;;;9.80;94.50;;;;;;5070852;28;20414;-66
2021/10/02 06:54:01;;;;;;;12.20;3.60;;;9.90;94.40;;;;;;5070799;28;20127;-65
2021/10/02 06:56:28;;;;;;;4.35;1.73;;;9.90;94.10;;;;;;5049506;28;20059;-66
2021/10/02 06:58:55;;;;;;;9.70;2.58;;;9.90;94.00;;;;;;5072742;28;20476;-65
2021/10/02 07:01:22;;;;;;;4.72;2.00;;;9.90;93.40;;;;;;5054167;28;20066;-67
2021/10/02 07:03:50;;;;;;;10.23;2.53;;;10.00;93.40;;;;;;5089426;28;20052;-65
2021/10/02 07:06:17;;;;;;;6.88;1.95;;;10.00;93.00;;;;;;5088971;28;20465;-65
2021/10/02 07:08:44;;;;;;;10.07;2.30;;;10.00;93.10;;;;;;5070904;28;20052;-65
2021/10/02 07:11:12;;;;;;;10.57;2.33;;;10.10;92.70;;;;;;5090630;28;20051;-66
2021/10/02 07:13:39;;;;;;;7.18;2.55;;;10.10;92.80;;;;;;5059153;28;20044;-66
2021/10/02 07:16:06;;;;;;;6.72;2.22;;;10.10;92.40;;;;;;5087668;28;20058;-65
2021/10/02 07:18:33;;;;;;;5.50;2.42;;;10.10;92.80;;;;;;5083032;28;20072;-65
2021/10/02 07:21:00;;;;;;;8.63;2.00;;;10.20;92.40;;;;;;5088935;28;20048;-66
2021/10/02 07:23:29;;;;;;;6.82;2.00;;;10.20;92.50;;;;;;5060106;28;20052;-67
2021/10/02 07:25:56;;;;;;;5.35;2.00;;;10.20;92.40;;;;;;5071790;28;20087;-67
2021/10/02 07:28:23;;;;;;;13.60;3.20;;;10.20;92.40;;;;;;5089015;28;20048;-67
2021/10/02 07:30:50;;;;;;;9.35;2.13;;;10.20;92.70;;;;;;5089566;28;20040;-66
2021/10/02 07:33:17;;;;;;;10.00;2.30;;;10.30;92.50;;;;;;5064613;28;20301;-67
2021/10/02 07:35:44;;;;;;;8.02;2.10;;;10.30;92.50;;;;;;5071366;28;20062;-67
2021/10/02 07:38:12;;;;;;;5.72;2.20;;;10.40;92.20;;;;;;5089039;28;20049;-67
2021/10/02 07:40:39;;;;;;;8.95;3.10;;;10.40;92.10;;;;;;5067698;28;20414;-67
2021/10/02 07:43:06;;;;;;;6.07;1.95;;;10.50;92.00;;;;;;5089272;28;20120;-66
2021/10/02 07:45:33;;;;;;;6.28;1.92;;;10.50;91.90;;;;;;5053168;28;20176;-67
2021/10/02 07:48:00;;;;;;;7.68;1.85;;;10.50;91.90;;;;;;5058010;28;20510;-67
2021/10/02 07:50:27;;;;;;;9.88;2.85;;;10.60;91.70;;;;;;5052704;28;20051;-67
2021/10/02 07:52:55;;;;;;;7.78;1.95;;;10.60;91.40;;;;;;5063395;28;20078;-67
2021/10/02 07:55:24;;;;;;;7.65;2.92;;;10.70;91.70;;;;;;5062964;28;20150;-67
2021/10/02 07:57:51;;;;;;;7.00;2.60;;;10.80;91.70;;;;;;5050489;28;20105;-67
2021/10/02 08:00:19;;;;;;;8.63;1.85;;;10.90;91.30;;;;;;5067141;28;20070;-67
2021/10/02 08:02:52;;;;;;;6.38;2.10;;;10.90;90.90;;;;;;5071261;28;20062;-67
2021/10/02 08:05:21;;;;;;;9.52;2.60;;;11.10;91.20;;;;;;5053855;28;20054;-67
2021/10/02 08:07:48;;;;;;;8.20;2.17;;;11.20;90.90;;;;;;5032090;28;20489;-67
2021/10/02 08:10:17;;;;;;;8.75;2.10;;;11.30;90.90;;;;;;5051137;28;20504;-66
2021/10/02 08:12:44;;;;;;;6.30;2.00;;;11.40;90.70;;;;;;5086090;28;20047;-67
2021/10/02 08:15:13;;;;;;;6.82;2.88;;;11.50;90.30;;;;;;5087133;28;20483;-67
2021/10/02 08:17:43;;;;;;;6.53;2.28;;;11.60;91.10;;;;;;5067885;28;20051;-67
2021/10/02 08:20:15;;;;;;;7.50;1.95;;;11.70;90.70;;;;;;5042620;28;20104;-67
2021/10/02 08:22:46;;;;;;;8.30;1.95;;;11.70;90.10;;;;;;5046949;28;20127;-67
2021/10/02 08:25:14;;;;;;;9.60;2.17;;;11.80;90.00;;;;;;5071845;28;20070;-67
2021/10/02 08:27:41;;;;;;;13.25;2.47;;;11.80;90.50;;;;;;5090228;28;20090;-67
2021/10/02 08:30:09;;;;;;;7.93;2.50;;;11.90;89.20;;;;;;5093722;28;20095;-67
2021/10/02 08:32:36;;;;;;;10.10;2.42;;;11.90;90.10;;;;;;5074804;28;20496;-67
2021/10/02 08:35:06;;;;;;;9.07;2.30;;;12.00;88.60;;;;;;5042664;28;20140;-67
2021/10/02 08:37:33;;;;;;;11.15;2.20;;;12.00;89.50;;;;;;5055009;28;20083;-65
2021/10/02 08:40:00;;;;;;;8.82;2.33;;;12.00;88.90;;;;;;5058961;28;20140;-67
2021/10/02 08:42:27;;;;;;;8.73;2.70;;;12.10;90.00;;;;;;5058393;28;20506;-67
2021/10/02 08:44:55;;;;;;;6.35;2.17;;;12.10;89.60;;;;;;5063597;28;20066;-67
2021/10/02 08:47:22;;;;;;;8.40;2.67;;;12.10;88.80;;;;;;5072749;28;20048;-67
2021/10/02 08:49:50;;;;;;;10.23;2.38;;;12.20;89.50;;;;;;5053963;28;20048;-67
2021/10/02 08:52:19;;;;;;;8.27;2.20;;;12.20;89.30;;;;;;5072094;28;20094;-68
2021/10/02 08:54:49;;;;;;;8.50;2.60;;;12.20;89.10;;;;;;5059266;28;20044;-67
2021/10/02 08:57:24;;;;;;;8.13;2.25;;;12.30;89.50;;;;;;5089676;28;20043;-65
2021/10/02 08:59:51;;;;;;;6.45;2.92;;;12.30;90.30;;;;;;5071471;28;20518;-66
2021/10/02 09:02:19;;;;;;;8.85;2.58;;;12.30;90.30;;;;;;5069064;28;20139;-68
2021/10/02 09:04:47;;;;;;;8.63;2.20;;;12.40;90.40;;;;;;5069443;28;20044;-67
2021/10/02 09:07:15;;;;;;;9.68;2.35;;;12.40;90.50;;;;;;5053300;28;20104;-65
2021/10/02 09:09:44;;;;;;;11.90;2.42;;;12.40;90.90;;;;;;5072660;28;20068;-65
2021/10/02 09:12:11;;;;;;;11.20;2.30;;;12.40;90.70;;;;;;5053932;28;20518;-65
2021/10/02 09:14:38;;;;;;;7.97;2.65;;;12.50;90.90;;;;;;5072726;28;20044;-66
2021/10/02 09:17:05;;;;;;;7.75;2.60;;;12.50;91.20;;;;;;5054524;28;20403;-65
2021/10/02 09:19:32;;;;;;;18.73;3.55;;;12.50;91.30;;;;;;5072672;28;20395;-66
2021/10/02 09:22:04;;;;;;;8.63;3.03;;;12.50;91.70;;;;;;5074853;28;20041;-68
2021/10/02 09:24:38;;;;;;;13.13;2.90;;;12.60;92.30;;;;;;5087415;28;20057;-69
2021/10/02 09:27:16;;;;;;;13.98;4.35;;;12.60;91.60;;;;;;5087351;28;20052;-69
2021/10/02 09:29:50;;;;;;;13.70;2.97;;;12.60;91.50;;;;;;5090378;28;20427;-70
2021/10/02 09:32:22;;;;;;;11.43;3.38;;;12.70;91.50;;;;;;5078347;28;20407;-70
2021/10/02 09:34:55;;;;;;;11.00;2.63;;;12.70;91.80;;;;;;5053056;28;20128;-66
2021/10/02 09:37:24;;;;;;;10.77;2.88;;;12.70;91.70;;;;;;5043254;28;20112;-67
2021/10/02 09:39:55;;;;;;;;;;;12.80;91.80;;;;;;5057284;28;20051;-67
2021/10/02 09:42:26;;;;;;;7.38;2.72;;;12.80;92.10;;;;;;5072002;28;20430;-67
2021/10/02 09:45:14;;;;;;;11.73;3.20;;;12.90;91.60;;;;;;5046779;28;20109;-67
2021/10/02 09:47:42;;;;;;;12.05;4.10;;;12.90;91.50;;;;;;5052685;28;20071;-67
2021/10/02 09:50:19;;;;;;;16.23;3.30;;;13.00;91.50;;;;;;5054302;28;20511;-67
2021/10/02 09:52:54;;;;;;;9.13;3.05;;;13.00;91.40;;;;;;5054363;28;20463;-67
2021/10/02 09:55:28;;;;;;;10.32;3.15;;;13.00;91.60;;;;;;5055253;28;20063;-67
2021/10/02 09:58:28;;;;;;;11.80;3.00;;;13.00;92.00;;;;;;5087687;28;20070;-67
2021/10/02 10:00:55;;;;;;;15.98;4.18;;;13.00;91.70;;;;;;5034588;28;20442;-67
2021/10/02 10:03:23;;;;;;;11.52;4.50;;;13.10;91.70;;;;;;5073728;28;20491;-67
2021/10/02 10:05:51;;;;;;;10.68;3.15;;;13.10;91.70;;;;;;5073398;28;20044;-67
2021/10/02 10:08:22;;;;;;;17.90;4.35;;;13.20;91.60;;;;;;5057556;28;20048;-67
2021/10/02 10:10:49;;;;;;;8.65;3.45;;;13.20;92.00;;;;;;5057480;28;20047;-67
2021/10/02 10:13:20;;;;;;;8.88;3.10;;;13.20;91.90;;;;;;5036726;28;20131;-67
2021/10/02 10:15:48;;;;;;;9.43;3.42;;;13.20;91.70;;;;;;5053143;28;20049;-67
2021/10/02 10:18:28;;;;;;;14.30;4.53;;;13.30;91.70;;;;;;5043232;28;20059;-67
2021/10/02 10:21:00;;;;;;;9.43;3.45;;;13.30;91.90;;;;;;5053446;28;20412;-67
2021/10/02 10:23:40;;;;;;;11.07;2.83;;;13.30;91.80;;;;;;5053623;28;20152;-67
2021/10/02 10:26:12;;;;;;;12.30;3.13;;;13.30;92.10;;;;;;5037637;28;20048;-66
2021/10/02 10:28:44;;;;;;;10.13;3.25;;;13.30;92.60;;;;;;5053098;28;20485;-66
2021/10/02 10:31:13;;;;;;;13.75;3.53;;;13.30;93.20;;;;;;5053019;28;20059;-66
2021/10/02 10:33:41;;;;;;;15.43;3.47;;;13.30;93.50;;;;;;5070823;28;20104;-67
2021/10/02 10:36:08;;;;;;;15.30;3.65;;;13.30;93.60;;;;;;5053295;28;20135;-66
2021/10/02 10:38:37;;;;;;;18.92;4.70;;;13.30;93.80;;;;;;5053469;28;20131;-66
2021/10/02 10:41:10;;;;;;;17.45;4.10;;;13.20;94.90;;;;;;5070133;28;20103;-66
2021/10/02 10:43:37;;;;;;;22.27;5.18;;;13.20;94.80;;;;;;5052420;28;20056;-66
2021/10/02 10:46:06;;;;;;;12.75;4.00;;;13.10;95.40;;;;;;5070187;28;20052;-66
2021/10/02 10:48:33;;;;;;;25.15;4.50;;;13.10;95.70;;;;;;5035846;28;20097;-65
2021/10/02 10:51:05;;;;;;;18.73;4.40;;;13.10;96.50;;;;;;5052661;28;20088;-66
2021/10/02 10:53:47;;;;;;;12.88;3.95;;;13.00;96.10;;;;;;5052345;28;20060;-66
2021/10/02 10:56:16;;;;;;;10.23;4.45;;;13.00;96.80;;;;;;5037076;28;20047;-66
2021/10/02 10:58:43;;;;;;;11.90;3.42;;;13.00;97.00;;;;;;5052627;28;20534;-66
2021/10/02 11:01:11;;;;;;;9.70;3.22;;;13.00;97.10;;;;;;5052225;28;20971;-66
2021/10/02 11:03:47;;;;;;;8.25;2.45;;;13.00;97.10;;;;;;5036364;28;20164;-66
2021/10/02 11:06:15;;;;;;;8.45;3.38;;;12.90;97.50;;;;;;5052950;28;20368;-68
2021/10/02 11:09:05;;;;;;;8.30;2.33;;;12.90;97.40;;;;;;5052654;28;20102;-67
2021/10/02 11:11:44;;;;;;;10.98;2.50;;;12.90;97.80;;;;;;5053128;28;20458;-67
2021/10/02 11:14:15;;;;;;;13.73;2.75;;;12.90;98.10;;;;;;5068787;28;20121;-67
2021/10/02 11:16:43;;;;;;;10.02;3.03;;;13.00;98.20;;;;;;5036326;28;20060;-67
2021/10/02 11:19:31;;;;;;;8.88;2.50;;;13.00;98.10;;;;;;5070470;28;20442;-67
2021/10/02 11:22:43;;;;;;;6.20;2.10;;;13.00;98.20;;;;;;5037036;28;20538;-67
2021/10/02 11:25:42;;;;;;;4.30;1.65;;;13.10;98.10;;;;;;5070166;28;20060;-67
2021/10/02 11:28:25;;;;;;;6.93;1.80;;;13.10;98.40;;;;;;5052233;28;20131;-67
2021/10/02 11:30:54;;;;;;;6.45;1.77;;;13.10;98.30;;;;;;5052871;28;20121;-67
2021/10/02 11:33:46;;;;;;;4.55;1.77;;;13.10;98.40;;;;;;5052071;28;20083;-67
2021/10/02 11:36:39;;;;;;;4.97;1.60;;;13.10;98.60;;;;;;5070431;28;20059;-67
2021/10/02 11:39:12;;;;;;;4.03;1.98;;;13.10;98.80;;;;;;5070375;28;20040;-67
2021/10/02 11:41:48;;;;;;;4.43;1.55;;;13.10;98.70;;;;;;5052461;28;20369;-67
2021/10/02 11:44:33;;;;;;;4.35;2.25;;;13.10;98.70;;;;;;5069867;28;20080;-67
2021/10/02 11:47:36;;;;;;;5.30;2.05;;;13.20;98.90;;;;;;5069951;28;20055;-67
2021/10/02 11:50:12;;;;;;;4.93;1.75;;;13.20;99.20;;;;;;5072025;28;20052;-66
2021/10/02 11:52:50;;;;;;;6.93;2.20;;;13.20;99.00;;;;;;5070235;28;20056;-67
2021/10/02 11:55:39;;;;;;;10.40;3.33;;;13.30;99.20;;;;;;5051479;28;20144;-68
2021/10/02 11:58:12;;;;;;;7.10;2.10;;;13.30;99.00;;;;;;5069981;28;20033;-66
2021/10/02 12:00:39;;;;;;;6.72;2.05;;;13.30;99.40;;;;;;5071192;28;20441;-67
2021/10/02 12:03:07;;;;;;;5.32;2.67;;;13.30;99.40;;;;;;5040873;28;20393;-66
2021/10/02 12:05:35;;;;;;;5.43;1.90;;;13.40;99.50;;;;;;5073499;28;20447;-68
2021/10/02 12:08:02;;;;;;;6.65;2.75;;;13.40;99.80;;;;;;5072613;28;20048;-68
2021/10/02 12:10:30;;;;;;;4.57;1.95;;;13.50;99.70;;;;;;5055977;28;20135;-69
2021/10/02 12:13:40;;;;;;;5.57;1.90;;;13.50;99.70;;;;;;5074095;28;20104;-66
2021/10/02 12:16:14;;;;;;;9.98;2.80;;;13.60;99.90;;;;;;5048165;28;21932;-68
2021/10/02 12:18:56;;;;;;;4.20;1.90;;;13.70;99.80;;;;;;5042175;28;20492;-67
2021/10/02 12:21:22;;;;;;;5.78;2.00;;;13.70;99.90;;;;;;5060507;28;20161;-67
2021/10/02 12:24:07;;;;;;;5.85;2.28;;;13.80;99.90;;;;;;5073393;28;20055;-68
2021/10/02 12:26:53;;;;;;;7.15;2.65;;;13.80;99.60;;;;;;5073706;28;20455;-67
2021/10/02 12:29:28;;;;;;;4.80;1.70;;;13.80;99.60;;;;;;5056032;28;20094;-66
2021/10/02 12:32:08;;;;;;;8.75;2.28;;;13.80;99.70;;;;;;5038931;28;20067;-67
2021/10/02 12:34:39;;;;;;;5.03;1.55;;;13.80;99.30;;;;;;5055749;28;20147;-68
2021/10/02 12:37:15;;;;;;;5.30;1.58;;;13.80;99.30;;;;;;5055614;28;20124;-67
2021/10/02 12:39:49;;;;;;;5.47;1.92;;;13.80;99.20;;;;;;5055472;28;20051;-67
2021/10/02 12:42:51;;;;;;;6.75;2.60;;;13.90;99.40;;;;;;5055573;28;20480;-68
2021/10/02 12:45:20;;;;;;;9.45;3.10;;;13.80;99.30;;;;;;5071950;28;20119;-67
2021/10/02 12:47:53;;;;;;;9.10;2.30;;;13.90;99.50;;;;;;5054742;28;20063;-67
2021/10/02 12:50:23;;;;;;;5.72;2.17;;;13.90;99.20;;;;;;5055911;28;20084;-66
2021/10/02 12:52:54;;;;;;;5.28;2.10;;;13.80;99.50;;;;;;5055303;28;20524;-67
2021/10/02 12:55:22;;;;;;;5.85;1.90;;;13.90;99.30;;;;;;5055009;28;20054;-66
2021/10/02 12:57:49;;;;;;;5.03;2.25;;;13.80;99.60;;;;;;5054802;28;20045;-67
2021/10/02 13:00:20;;;;;;;6.28;2.67;;;13.90;99.60;;;;;;5070482;28;20344;-67
2021/10/02 13:02:48;;;;;;;3.20;1.70;;;13.90;99.90;;;;;;5072351;28;20476;-67
2021/10/02 13:05:18;;;;;;;6.22;2.78;;;13.90;99.60;;;;;;5072760;28;20485;-68
2021/10/02 13:07:49;;;;;;;4.22;1.73;;;14.00;99.60;;;;;;5071821;28;20053;-66
2021/10/02 13:10:33;;;;;;;5.07;1.60;;;14.00;99.80;;;;;;5071202;28;20157;-67
2021/10/02 13:13:03;;;;;;;7.35;2.22;;;14.00;99.40;;;;;;5071365;28;20063;-67
2021/10/02 13:15:37;;;;;;;2.83;1.42;;;14.00;99.80;;;;;;5071420;28;20530;-67
2021/10/02 13:18:06;;;;;;;4.75;1.40;;;14.00;99.40;;;;;;5072189;28;20044;-66
2021/10/02 13:20:40;;;;;;;2.17;0.82;;;14.00;99.40;;;;;;5054961;28;20668;-66
2021/10/02 13:23:12;;;;;;;3.70;1.13;;;14.00;99.30;;;;;;5055556;28;20048;-67
2021/10/02 13:25:43;;;;;;;2.65;1.02;;;14.00;99.50;;;;;;5054448;28;20124;-67
2021/10/02 13:28:24;;;;;;;3.33;1.40;;;14.00;99.70;;;;;;5054393;28;20484;-66
2021/10/02 13:30:51;;;;;;;2.88;1.30;;;14.00;99.90;;;;;;5072369;28;20147;-67
2021/10/02 13:33:18;;;;;;;3.60;1.20;;;14.00;99.90;;;;;;5054319;28;20052;-66
2021/10/02 13:35:56;;;;;;;3.13;1.20;;;14.00;99.90;;;;;;5054342;28;20049;-66
2021/10/02 13:38:32;;;;;;;3.67;2.10;;;14.00;99.90;;;;;;5072116;28;20056;-66
2021/10/02 13:41:01;;;;;;;2.05;1.08;;;14.00;99.90;;;;;;5054790;28;20055;-67
2021/10/02 13:43:28;;;;;;;4.68;1.20;;;14.00;99.90;;;;;;5054344;28;20045;-70
2021/10/02 13:45:55;;;;;;;3.95;1.15;;;14.00;99.90;;;;;;5055914;28;20056;-68
2021/10/02 13:48:25;;;;;;;3.33;1.15;;;13.90;99.90;;;;;;5035471;28;20060;-68
2021/10/02 13:50:55;;;;;;;1.10;0.98;;;13.90;99.90;;;;;;5037967;28;20060;-67
2021/10/02 13:53:23;;;;;;;2.15;1.00;;;14.00;99.90;;;;;;5054220;28;20044;-67
2021/10/02 13:55:51;;;;;;;2.22;1.30;;;14.00;99.90;;;;;;5053963;28;20106;-68
2021/10/02 13:58:18;;;;;;;3.50;1.33;;;14.00;99.90;;;;;;5052735;28;20048;-66
2021/10/02 14:00:46;;;;;;;5.72;2.15;;;14.10;99.90;;;;;;5086146;28;20080;-66